sensor_id;sensor_type;location;lat;lon;timestamp;P1;durP1;ratioP1;P2;durP2;ratioP2
71080;SDS011;58740;50.672;18.690;2023-04-03T00:01:18;6.80;;;2.30;;
71080;SDS011;58740;50.672;18.690;2023-04-03T00:03:47;6.70;;;2.00;;
71080;SDS011;58740;50.672;18.690;2023-04-03T00:06:14;6.60;;;2.00;;
71080;SDS011;58740;50.672;18.690;2023-04-03T00:08:42;5.90;;;2.60;;
71080;SDS011;58740;50.672;18.690;2023-04-03T00:11:10;7.90;;;2.00;;
71080;SDS011;58740;50.672;18.690;2023-04-03T00:13:38;7.20;;;1.50;;
71080;SDS011;58740;50.672;18.690;2023-04-03T00:16:07;6.10;;;2.10;;
71080;SDS011;58740;50.672;18.690;2023-04-03T00:18:38;6.50;;;2.10;;
71080;SDS011;58740;50.672;18.690;2023-04-03T00:21:09;8.70;;;2.90;;
71080;SDS011;58740;50.672;18.690;2023-04-03T00:23:39;6.00;;;2.10;;
71080;SDS011;58740;50.672;18.690;2023-04-03T00:26:07;6.80;;;1.90;;
71080;SDS011;58740;50.672;18.690;2023-04-03T00:28:34;6.60;;;2.00;;
71080;SDS011;58740;50.672;18.690;2023-04-03T00:31:02;8.00;;;2.10;;
71080;SDS011;58740;50.672;18.690;2023-04-03T00:33:31;6.90;;;2.10;;
71080;SDS011;58740;50.672;18.690;2023-04-03T00:35:58;8.10;;;2.20;;
71080;SDS011;58740;50.672;18.690;2023-04-03T00:38:27;3.50;;;1.10;;
71080;SDS011;58740;50.672;18.690;2023-04-03T00:40:54;8.60;;;1.90;;
71080;SDS011;58740;50.672;18.690;2023-04-03T00:43:24;5.00;;;1.50;;
71080;SDS011;58740;50.672;18.690;2023-04-03T00:45:56;4.40;;;1.50;;
71080;SDS011;58740;50.672;18.690;2023-04-03T00:48:31;7.00;;;1.70;;
71080;SDS011;58740;50.672;18.690;2023-04-03T00:51:03;8.50;;;1.50;;
71080;SDS011;58740;50.672;18.690;2023-04-03T00:53:38;10.80;;;2.40;;
71080;SDS011;58740;50.672;18.690;2023-04-03T00:56:11;9.70;;;1.90;;
71080;SDS011;58740;50.672;18.690;2023-04-03T00:58:49;6.50;;;2.30;;
71080;SDS011;58740;50.672;18.690;2023-04-03T01:01:49;4.20;;;1.50;;
71080;SDS011;58740;50.672;18.690;2023-04-03T01:04:33;9.60;;;1.20;;
71080;SDS011;58740;50.672;18.690;2023-04-03T01:07:30;6.20;;;1.80;;
71080;SDS011;58740;50.672;18.690;2023-04-03T01:10:00;8.10;;;2.50;;
71080;SDS011;58740;50.672;18.690;2023-04-03T01:12:34;8.30;;;2.90;;
71080;SDS011;58740;50.672;18.690;2023-04-03T01:15:08;22.20;;;10.50;;
71080;SDS011;58740;50.672;18.690;2023-04-03T01:17:50;12.90;;;4.70;;
71080;SDS011;58740;50.672;18.690;2023-04-03T01:20:36;19.40;;;7.90;;
71080;SDS011;58740;50.672;18.690;2023-04-03T01:25:58;12.60;;;5.10;;
71080;SDS011;58740;50.672;18.690;2023-04-03T01:28:30;12.40;;;4.50;;
71080;SDS011;58740;50.672;18.690;2023-04-03T01:31:28;6.40;;;1.90;;
71080;SDS011;58740;50.672;18.690;2023-04-03T01:34:08;6.00;;;1.90;;
71080;SDS011;58740;50.672;18.690;2023-04-03T01:36:36;7.10;;;1.60;;
71080;SDS011;58740;50.672;18.690;2023-04-03T01:39:04;5.00;;;1.50;;
71080;SDS011;58740;50.672;18.690;2023-04-03T01:41:31;5.10;;;1.10;;
71080;SDS011;58740;50.672;18.690;2023-04-03T01:43:59;7.50;;;1.70;;
71080;SDS011;58740;50.672;18.690;2023-04-03T01:46:27;6.20;;;2.00;;
71080;SDS011;58740;50.672;18.690;2023-04-03T01:48:55;4.20;;;0.90;;
71080;SDS011;58740;50.672;18.690;2023-04-03T01:51:23;7.50;;;1.90;;
71080;SDS011;58740;50.672;18.690;2023-04-03T01:53:50;6.40;;;1.70;;
71080;SDS011;58740;50.672;18.690;2023-04-03T01:56:18;6.10;;;1.50;;
71080;SDS011;58740;50.672;18.690;2023-04-03T01:58:47;5.50;;;1.50;;
71080;SDS011;58740;50.672;18.690;2023-04-03T02:01:15;6.60;;;2.60;;
71080;SDS011;58740;50.672;18.690;2023-04-03T02:03:43;4.90;;;1.40;;
71080;SDS011;58740;50.672;18.690;2023-04-03T02:06:11;4.70;;;1.30;;
71080;SDS011;58740;50.672;18.690;2023-04-03T02:08:39;7.70;;;1.80;;
71080;SDS011;58740;50.672;18.690;2023-04-03T02:11:07;10.20;;;2.00;;
71080;SDS011;58740;50.672;18.690;2023-04-03T02:13:35;10.10;;;2.10;;
71080;SDS011;58740;50.672;18.690;2023-04-03T02:16:07;7.30;;;1.60;;
71080;SDS011;58740;50.672;18.690;2023-04-03T02:18:39;4.80;;;1.30;;
71080;SDS011;58740;50.672;18.690;2023-04-03T02:21:07;5.10;;;1.70;;
71080;SDS011;58740;50.672;18.690;2023-04-03T02:23:35;4.70;;;1.50;;
71080;SDS011;58740;50.672;18.690;2023-04-03T02:26:10;7.00;;;2.10;;
71080;SDS011;58740;50.672;18.690;2023-04-03T02:28:39;5.40;;;1.70;;
71080;SDS011;58740;50.672;18.690;2023-04-03T02:31:09;5.10;;;1.40;;
71080;SDS011;58740;50.672;18.690;2023-04-03T02:33:38;6.70;;;1.50;;
71080;SDS011;58740;50.672;18.690;2023-04-03T02:36:07;6.10;;;1.10;;
71080;SDS011;58740;50.672;18.690;2023-04-03T02:38:35;9.10;;;1.70;;
71080;SDS011;58740;50.672;18.690;2023-04-03T02:41:08;4.30;;;1.50;;
71080;SDS011;58740;50.672;18.690;2023-04-03T02:43:38;11.80;;;3.70;;
71080;SDS011;58740;50.672;18.690;2023-04-03T02:46:06;4.60;;;1.60;;
71080;SDS011;58740;50.672;18.690;2023-04-03T02:48:35;7.50;;;2.00;;
71080;SDS011;58740;50.672;18.690;2023-04-03T02:51:03;9.10;;;2.30;;
71080;SDS011;58740;50.672;18.690;2023-04-03T02:53:31;10.80;;;3.60;;
71080;SDS011;58740;50.672;18.690;2023-04-03T02:55:59;6.30;;;2.70;;
71080;SDS011;58740;50.672;18.690;2023-04-03T02:58:27;9.60;;;2.30;;
71080;SDS011;58740;50.672;18.690;2023-04-03T03:00:54;8.30;;;2.40;;
71080;SDS011;58740;50.672;18.690;2023-04-03T03:03:22;10.40;;;2.30;;
71080;SDS011;58740;50.672;18.690;2023-04-03T03:06:00;10.80;;;2.50;;
71080;SDS011;58740;50.672;18.690;2023-04-03T03:08:33;5.60;;;1.50;;
71080;SDS011;58740;50.672;18.690;2023-04-03T03:11:02;5.20;;;1.80;;
71080;SDS011;58740;50.672;18.690;2023-04-03T03:13:31;9.40;;;3.00;;
71080;SDS011;58740;50.672;18.690;2023-04-03T03:15:59;7.60;;;2.90;;
71080;SDS011;58740;50.672;18.690;2023-04-03T03:18:28;6.80;;;2.10;;
71080;SDS011;58740;50.672;18.690;2023-04-03T03:20:58;13.40;;;3.50;;
71080;SDS011;58740;50.672;18.690;2023-04-03T03:23:28;9.00;;;3.10;;
71080;SDS011;58740;50.672;18.690;2023-04-03T03:26:00;6.90;;;2.30;;
71080;SDS011;58740;50.672;18.690;2023-04-03T03:28:32;9.00;;;2.50;;
71080;SDS011;58740;50.672;18.690;2023-04-03T03:31:00;8.90;;;1.90;;
71080;SDS011;58740;50.672;18.690;2023-04-03T03:33:28;6.30;;;1.80;;
71080;SDS011;58740;50.672;18.690;2023-04-03T03:35:57;5.20;;;1.60;;
71080;SDS011;58740;50.672;18.690;2023-04-03T03:38:24;9.70;;;2.30;;
71080;SDS011;58740;50.672;18.690;2023-04-03T03:40:53;7.70;;;2.50;;
71080;SDS011;58740;50.672;18.690;2023-04-03T03:43:21;9.40;;;2.50;;
71080;SDS011;58740;50.672;18.690;2023-04-03T03:45:52;3.30;;;1.00;;
71080;SDS011;58740;50.672;18.690;2023-04-03T03:48:21;7.60;;;1.50;;
71080;SDS011;58740;50.672;18.690;2023-04-03T03:50:49;4.80;;;2.20;;
71080;SDS011;58740;50.672;18.690;2023-04-03T03:53:17;8.30;;;2.70;;
71080;SDS011;58740;50.672;18.690;2023-04-03T03:55:46;6.90;;;2.50;;
71080;SDS011;58740;50.672;18.690;2023-04-03T03:58:14;6.20;;;2.40;;
71080;SDS011;58740;50.672;18.690;2023-04-03T04:00:42;8.60;;;1.70;;
71080;SDS011;58740;50.672;18.690;2023-04-03T04:03:09;5.00;;;1.60;;
71080;SDS011;58740;50.672;18.690;2023-04-03T04:05:37;4.80;;;1.80;;
71080;SDS011;58740;50.672;18.690;2023-04-03T04:08:05;8.40;;;1.80;;
71080;SDS011;58740;50.672;18.690;2023-04-03T04:10:34;7.30;;;2.30;;
71080;SDS011;58740;50.672;18.690;2023-04-03T04:13:04;6.50;;;1.80;;
71080;SDS011;58740;50.672;18.690;2023-04-03T04:15:32;6.10;;;1.80;;
71080;SDS011;58740;50.672;18.690;2023-04-03T04:17:59;7.00;;;1.90;;
71080;SDS011;58740;50.672;18.690;2023-04-03T04:20:27;5.30;;;1.50;;
71080;SDS011;58740;50.672;18.690;2023-04-03T04:22:55;5.40;;;1.70;;
71080;SDS011;58740;50.672;18.690;2023-04-03T04:25:22;4.30;;;1.40;;
71080;SDS011;58740;50.672;18.690;2023-04-03T04:27:50;4.00;;;1.10;;
71080;SDS011;58740;50.672;18.690;2023-04-03T04:30:17;5.40;;;1.80;;
71080;SDS011;58740;50.672;18.690;2023-04-03T04:32:45;3.70;;;0.90;;
71080;SDS011;58740;50.672;18.690;2023-04-03T04:35:14;4.20;;;1.70;;
71080;SDS011;58740;50.672;18.690;2023-04-03T04:37:43;5.20;;;1.20;;
71080;SDS011;58740;50.672;18.690;2023-04-03T04:40:11;6.90;;;1.50;;
71080;SDS011;58740;50.672;18.690;2023-04-03T04:42:38;5.20;;;1.40;;
71080;SDS011;58740;50.672;18.690;2023-04-03T04:45:06;7.00;;;2.00;;
71080;SDS011;58740;50.672;18.690;2023-04-03T04:47:34;5.20;;;1.30;;
71080;SDS011;58740;50.672;18.690;2023-04-03T04:50:03;5.10;;;1.20;;
71080;SDS011;58740;50.672;18.690;2023-04-03T04:52:31;5.60;;;1.40;;
71080;SDS011;58740;50.672;18.690;2023-04-03T04:54:58;6.80;;;2.00;;
71080;SDS011;58740;50.672;18.690;2023-04-03T04:57:27;3.90;;;1.00;;
71080;SDS011;58740;50.672;18.690;2023-04-03T04:59:54;9.30;;;1.70;;
71080;SDS011;58740;50.672;18.690;2023-04-03T05:02:22;7.90;;;2.30;;
71080;SDS011;58740;50.672;18.690;2023-04-03T05:04:50;5.40;;;1.50;;
71080;SDS011;58740;50.672;18.690;2023-04-03T05:07:19;8.20;;;2.40;;
71080;SDS011;58740;50.672;18.690;2023-04-03T05:09:47;5.40;;;1.90;;
71080;SDS011;58740;50.672;18.690;2023-04-03T05:12:16;8.20;;;1.70;;
71080;SDS011;58740;50.672;18.690;2023-04-03T05:14:44;14.10;;;5.00;;
71080;SDS011;58740;50.672;18.690;2023-04-03T05:17:11;53.40;;;18.40;;
71080;SDS011;58740;50.672;18.690;2023-04-03T05:19:39;41.00;;;14.70;;
71080;SDS011;58740;50.672;18.690;2023-04-03T05:22:07;12.70;;;5.00;;
71080;SDS011;58740;50.672;18.690;2023-04-03T05:24:35;18.70;;;6.60;;
71080;SDS011;58740;50.672;18.690;2023-04-03T05:27:02;7.20;;;3.60;;
71080;SDS011;58740;50.672;18.690;2023-04-03T05:29:30;8.90;;;2.40;;
71080;SDS011;58740;50.672;18.690;2023-04-03T05:31:58;7.00;;;2.50;;
71080;SDS011;58740;50.672;18.690;2023-04-03T05:34:26;7.40;;;2.30;;
71080;SDS011;58740;50.672;18.690;2023-04-03T05:36:54;5.70;;;1.90;;
71080;SDS011;58740;50.672;18.690;2023-04-03T05:39:21;3.90;;;1.20;;
71080;SDS011;58740;50.672;18.690;2023-04-03T05:41:50;5.10;;;1.60;;
71080;SDS011;58740;50.672;18.690;2023-04-03T05:44:17;5.10;;;2.10;;
71080;SDS011;58740;50.672;18.690;2023-04-03T05:46:45;10.20;;;2.50;;
71080;SDS011;58740;50.672;18.690;2023-04-03T05:49:13;7.00;;;1.70;;
71080;SDS011;58740;50.672;18.690;2023-04-03T05:51:41;5.30;;;1.90;;
71080;SDS011;58740;50.672;18.690;2023-04-03T05:54:24;5.00;;;1.70;;
71080;SDS011;58740;50.672;18.690;2023-04-03T05:56:55;7.20;;;2.80;;
71080;SDS011;58740;50.672;18.690;2023-04-03T05:59:23;4.50;;;1.60;;
71080;SDS011;58740;50.672;18.690;2023-04-03T06:01:50;8.80;;;2.90;;
71080;SDS011;58740;50.672;18.690;2023-04-03T06:04:18;10.70;;;2.40;;
71080;SDS011;58740;50.672;18.690;2023-04-03T06:09:25;8.80;;;2.70;;
71080;SDS011;58740;50.672;18.690;2023-04-03T06:11:57;3.90;;;1.50;;
71080;SDS011;58740;50.672;18.690;2023-04-03T06:14:26;6.50;;;2.10;;
71080;SDS011;58740;50.672;18.690;2023-04-03T06:16:54;6.30;;;1.50;;
71080;SDS011;58740;50.672;18.690;2023-04-03T06:19:22;6.70;;;1.60;;
71080;SDS011;58740;50.672;18.690;2023-04-03T06:21:50;4.00;;;1.40;;
71080;SDS011;58740;50.672;18.690;2023-04-03T06:24:18;5.00;;;1.60;;
71080;SDS011;58740;50.672;18.690;2023-04-03T06:26:49;7.90;;;3.00;;
71080;SDS011;58740;50.672;18.690;2023-04-03T06:29:19;7.00;;;2.60;;
71080;SDS011;58740;50.672;18.690;2023-04-03T06:31:48;18.90;;;6.30;;
71080;SDS011;58740;50.672;18.690;2023-04-03T06:34:17;13.30;;;6.10;;
71080;SDS011;58740;50.672;18.690;2023-04-03T06:36:46;17.70;;;7.10;;
71080;SDS011;58740;50.672;18.690;2023-04-03T06:39:15;13.10;;;4.80;;
71080;SDS011;58740;50.672;18.690;2023-04-03T06:41:45;11.00;;;2.60;;
71080;SDS011;58740;50.672;18.690;2023-04-03T06:44:13;8.70;;;2.50;;
71080;SDS011;58740;50.672;18.690;2023-04-03T06:46:43;10.50;;;2.20;;
71080;SDS011;58740;50.672;18.690;2023-04-03T06:49:13;6.80;;;2.00;;
71080;SDS011;58740;50.672;18.690;2023-04-03T06:51:42;7.30;;;1.70;;
71080;SDS011;58740;50.672;18.690;2023-04-03T06:54:10;8.80;;;2.50;;
71080;SDS011;58740;50.672;18.690;2023-04-03T06:56:37;6.20;;;2.30;;
71080;SDS011;58740;50.672;18.690;2023-04-03T06:59:05;4.30;;;1.90;;
71080;SDS011;58740;50.672;18.690;2023-04-03T07:01:33;7.50;;;1.70;;
71080;SDS011;58740;50.672;18.690;2023-04-03T07:04:01;6.90;;;1.70;;
71080;SDS011;58740;50.672;18.690;2023-04-03T07:06:29;7.10;;;2.20;;
71080;SDS011;58740;50.672;18.690;2023-04-03T07:08:58;6.10;;;1.50;;
71080;SDS011;58740;50.672;18.690;2023-04-03T07:11:28;5.90;;;1.90;;
71080;SDS011;58740;50.672;18.690;2023-04-03T07:13:55;6.30;;;1.50;;
71080;SDS011;58740;50.672;18.690;2023-04-03T07:16:24;5.20;;;1.20;;
71080;SDS011;58740;50.672;18.690;2023-04-03T07:18:52;4.20;;;1.40;;
71080;SDS011;58740;50.672;18.690;2023-04-03T07:21:19;7.90;;;1.90;;
71080;SDS011;58740;50.672;18.690;2023-04-03T07:23:48;5.90;;;1.00;;
71080;SDS011;58740;50.672;18.690;2023-04-03T07:26:21;7.80;;;2.60;;
71080;SDS011;58740;50.672;18.690;2023-04-03T07:28:49;7.50;;;3.10;;
71080;SDS011;58740;50.672;18.690;2023-04-03T07:31:17;7.40;;;2.00;;
71080;SDS011;58740;50.672;18.690;2023-04-03T07:33:46;7.90;;;2.50;;
71080;SDS011;58740;50.672;18.690;2023-04-03T07:36:17;6.00;;;1.90;;
71080;SDS011;58740;50.672;18.690;2023-04-03T07:38:48;9.60;;;4.00;;
71080;SDS011;58740;50.672;18.690;2023-04-03T07:41:18;6.70;;;2.50;;
71080;SDS011;58740;50.672;18.690;2023-04-03T07:43:48;12.90;;;4.50;;
71080;SDS011;58740;50.672;18.690;2023-04-03T07:46:17;10.60;;;4.40;;
71080;SDS011;58740;50.672;18.690;2023-04-03T07:48:45;7.10;;;2.40;;
71080;SDS011;58740;50.672;18.690;2023-04-03T07:51:13;8.70;;;3.30;;
71080;SDS011;58740;50.672;18.690;2023-04-03T07:53:41;6.60;;;1.70;;
71080;SDS011;58740;50.672;18.690;2023-04-03T07:56:08;5.00;;;1.30;;
71080;SDS011;58740;50.672;18.690;2023-04-03T07:58:37;5.70;;;1.10;;
71080;SDS011;58740;50.672;18.690;2023-04-03T08:01:04;3.90;;;1.10;;
71080;SDS011;58740;50.672;18.690;2023-04-03T08:03:33;3.90;;;1.20;;
71080;SDS011;58740;50.672;18.690;2023-04-03T08:06:04;2.00;;;0.60;;
71080;SDS011;58740;50.672;18.690;2023-04-03T08:08:42;5.70;;;2.10;;
71080;SDS011;58740;50.672;18.690;2023-04-03T08:11:11;5.40;;;1.70;;
71080;SDS011;58740;50.672;18.690;2023-04-03T08:13:39;6.60;;;1.90;;
71080;SDS011;58740;50.672;18.690;2023-04-03T08:16:11;6.90;;;2.30;;
71080;SDS011;58740;50.672;18.690;2023-04-03T08:18:41;4.10;;;1.10;;
71080;SDS011;58740;50.672;18.690;2023-04-03T08:21:11;4.20;;;1.10;;
71080;SDS011;58740;50.672;18.690;2023-04-03T08:23:40;4.70;;;1.50;;
71080;SDS011;58740;50.672;18.690;2023-04-03T08:26:13;5.80;;;1.00;;
71080;SDS011;58740;50.672;18.690;2023-04-03T08:28:43;6.90;;;1.80;;
71080;SDS011;58740;50.672;18.690;2023-04-03T08:31:14;4.40;;;1.20;;
71080;SDS011;58740;50.672;18.690;2023-04-03T08:33:44;8.30;;;3.10;;
71080;SDS011;58740;50.672;18.690;2023-04-03T08:36:25;5.20;;;1.40;;
71080;SDS011;58740;50.672;18.690;2023-04-03T08:38:55;4.50;;;1.20;;
71080;SDS011;58740;50.672;18.690;2023-04-03T08:41:41;4.00;;;1.10;;
71080;SDS011;58740;50.672;18.690;2023-04-03T08:47:32;4.00;;;1.30;;
71080;SDS011;58740;50.672;18.690;2023-04-03T08:50:11;6.20;;;2.10;;
71080;SDS011;58740;50.672;18.690;2023-04-03T08:52:45;6.50;;;1.50;;
71080;SDS011;58740;50.672;18.690;2023-04-03T08:55:28;3.30;;;1.00;;
71080;SDS011;58740;50.672;18.690;2023-04-03T08:58:04;4.30;;;0.80;;
71080;SDS011;58740;50.672;18.690;2023-04-03T09:00:44;4.90;;;1.60;;
71080;SDS011;58740;50.672;18.690;2023-04-03T09:03:17;4.90;;;1.50;;
71080;SDS011;58740;50.672;18.690;2023-04-03T09:06:00;3.20;;;0.90;;
71080;SDS011;58740;50.672;18.690;2023-04-03T09:08:50;6.20;;;1.10;;
71080;SDS011;58740;50.672;18.690;2023-04-03T09:14:48;4.30;;;1.10;;
71080;SDS011;58740;50.672;18.690;2023-04-03T09:20:46;3.10;;;1.00;;
71080;SDS011;58740;50.672;18.690;2023-04-03T09:23:49;2.70;;;0.90;;
71080;SDS011;58740;50.672;18.690;2023-04-03T09:26:24;2.90;;;0.60;;
71080;SDS011;58740;50.672;18.690;2023-04-03T09:29:00;2.90;;;0.90;;
71080;SDS011;58740;50.672;18.690;2023-04-03T09:31:42;3.40;;;1.10;;
71080;SDS011;58740;50.672;18.690;2023-04-03T09:34:23;3.40;;;0.60;;
71080;SDS011;58740;50.672;18.690;2023-04-03T09:36:55;4.40;;;1.00;;
71080;SDS011;58740;50.672;18.690;2023-04-03T09:39:50;3.20;;;1.40;;
71080;SDS011;58740;50.672;18.690;2023-04-03T09:42:24;5.20;;;1.70;;
71080;SDS011;58740;50.672;18.690;2023-04-03T09:44:56;3.10;;;1.10;;
71080;SDS011;58740;50.672;18.690;2023-04-03T09:47:30;4.60;;;1.30;;
71080;SDS011;58740;50.672;18.690;2023-04-03T09:52:43;4.10;;;1.40;;
71080;SDS011;58740;50.672;18.690;2023-04-03T09:55:14;5.20;;;1.20;;
71080;SDS011;58740;50.672;18.690;2023-04-03T09:58:03;8.60;;;2.90;;
71080;SDS011;58740;50.672;18.690;2023-04-03T10:00:57;4.50;;;1.50;;
71080;SDS011;58740;50.672;18.690;2023-04-03T10:03:34;5.60;;;1.40;;
71080;SDS011;58740;50.672;18.690;2023-04-03T10:06:21;4.60;;;1.20;;
71080;SDS011;58740;50.672;18.690;2023-04-03T10:08:59;7.00;;;2.50;;
71080;SDS011;58740;50.672;18.690;2023-04-03T10:12:10;15.00;;;6.60;;
71080;SDS011;58740;50.672;18.690;2023-04-03T10:20:35;5.40;;;1.60;;
71080;SDS011;58740;50.672;18.690;2023-04-03T10:23:33;6.70;;;2.20;;
71080;SDS011;58740;50.672;18.690;2023-04-03T10:26:29;4.50;;;1.30;;
71080;SDS011;58740;50.672;18.690;2023-04-03T10:32:11;3.70;;;1.10;;
71080;SDS011;58740;50.672;18.690;2023-04-03T10:34:57;1.50;;;0.50;;
71080;SDS011;58740;50.672;18.690;2023-04-03T10:44:52;3.00;;;1.00;;
71080;SDS011;58740;50.672;18.690;2023-04-03T10:59:47;2.70;;;0.90;;
71080;SDS011;58740;50.672;18.690;2023-04-03T11:02:51;3.70;;;1.20;;
71080;SDS011;58740;50.672;18.690;2023-04-03T11:05:37;2.10;;;0.70;;
71080;SDS011;58740;50.672;18.690;2023-04-03T11:08:43;3.50;;;1.10;;
71080;SDS011;58740;50.672;18.690;2023-04-03T11:11:19;4.10;;;0.80;;
71080;SDS011;58740;50.672;18.690;2023-04-03T11:14:35;2.70;;;0.60;;
71080;SDS011;58740;50.672;18.690;2023-04-03T11:19:59;3.60;;;1.40;;
71080;SDS011;58740;50.672;18.690;2023-04-03T11:22:36;2.70;;;0.70;;
71080;SDS011;58740;50.672;18.690;2023-04-03T11:27:57;3.70;;;0.80;;
71080;SDS011;58740;50.672;18.690;2023-04-03T11:36:28;4.00;;;1.00;;
71080;SDS011;58740;50.672;18.690;2023-04-03T11:39:26;3.80;;;1.40;;
71080;SDS011;58740;50.672;18.690;2023-04-03T11:42:37;4.80;;;1.60;;
71080;SDS011;58740;50.672;18.690;2023-04-03T11:45:17;3.30;;;1.00;;
71080;SDS011;58740;50.672;18.690;2023-04-03T11:47:57;4.10;;;1.30;;
71080;SDS011;58740;50.672;18.690;2023-04-03T11:55:52;6.50;;;2.00;;
71080;SDS011;58740;50.672;18.690;2023-04-03T12:04:15;5.80;;;1.10;;
71080;SDS011;58740;50.672;18.690;2023-04-03T12:11:56;4.60;;;1.50;;
71080;SDS011;58740;50.672;18.690;2023-04-03T12:14:27;5.10;;;1.70;;
71080;SDS011;58740;50.672;18.690;2023-04-03T12:16:56;17.20;;;2.00;;
71080;SDS011;58740;50.672;18.690;2023-04-03T12:19:39;3.20;;;1.20;;
71080;SDS011;58740;50.672;18.690;2023-04-03T12:22:14;4.90;;;1.30;;
71080;SDS011;58740;50.672;18.690;2023-04-03T12:24:46;3.70;;;1.20;;
71080;SDS011;58740;50.672;18.690;2023-04-03T12:27:33;3.10;;;0.90;;
71080;SDS011;58740;50.672;18.690;2023-04-03T12:30:17;4.60;;;0.90;;
71080;SDS011;58740;50.672;18.690;2023-04-03T12:36:02;5.40;;;1.70;;
71080;SDS011;58740;50.672;18.690;2023-04-03T12:39:12;5.90;;;1.10;;
71080;SDS011;58740;50.672;18.690;2023-04-03T12:42:11;2.90;;;1.10;;
71080;SDS011;58740;50.672;18.690;2023-04-03T12:45:08;4.00;;;1.30;;
71080;SDS011;58740;50.672;18.690;2023-04-03T12:47:43;4.20;;;1.40;;
71080;SDS011;58740;50.672;18.690;2023-04-03T12:50:28;2.90;;;1.00;;
71080;SDS011;58740;50.672;18.690;2023-04-03T12:53:06;4.20;;;1.40;;
71080;SDS011;58740;50.672;18.690;2023-04-03T12:55:39;3.40;;;1.30;;
71080;SDS011;58740;50.672;18.690;2023-04-03T12:58:26;2.50;;;0.80;;
71080;SDS011;58740;50.672;18.690;2023-04-03T13:01:13;4.00;;;1.10;;
71080;SDS011;58740;50.672;18.690;2023-04-03T13:03:48;4.00;;;1.10;;
71080;SDS011;58740;50.672;18.690;2023-04-03T13:06:41;3.10;;;1.00;;
71080;SDS011;58740;50.672;18.690;2023-04-03T13:09:42;3.30;;;1.00;;
71080;SDS011;58740;50.672;18.690;2023-04-03T13:12:13;3.60;;;1.30;;
71080;SDS011;58740;50.672;18.690;2023-04-03T13:14:54;3.70;;;1.30;;
71080;SDS011;58740;50.672;18.690;2023-04-03T13:17:24;3.90;;;1.20;;
71080;SDS011;58740;50.672;18.690;2023-04-03T13:19:54;3.70;;;1.40;;
71080;SDS011;58740;50.672;18.690;2023-04-03T13:22:36;5.40;;;1.60;;
71080;SDS011;58740;50.672;18.690;2023-04-03T13:25:13;6.10;;;1.90;;
71080;SDS011;58740;50.672;18.690;2023-04-03T13:27:44;4.00;;;1.30;;
71080;SDS011;58740;50.672;18.690;2023-04-03T13:33:03;8.00;;;3.60;;
71080;SDS011;58740;50.672;18.690;2023-04-03T13:35:39;6.00;;;1.70;;
71080;SDS011;58740;50.672;18.690;2023-04-03T13:40:54;4.50;;;1.40;;
71080;SDS011;58740;50.672;18.690;2023-04-03T13:43:29;4.00;;;0.80;;
71080;SDS011;58740;50.672;18.690;2023-04-03T13:46:23;7.10;;;1.80;;
71080;SDS011;58740;50.672;18.690;2023-04-03T13:48:55;5.20;;;1.30;;
71080;SDS011;58740;50.672;18.690;2023-04-03T13:51:27;4.20;;;1.10;;
71080;SDS011;58740;50.672;18.690;2023-04-03T13:53:59;6.50;;;1.70;;
71080;SDS011;58740;50.672;18.690;2023-04-03T13:56:33;4.30;;;1.60;;
71080;SDS011;58740;50.672;18.690;2023-04-03T14:02:14;5.90;;;1.20;;
71080;SDS011;58740;50.672;18.690;2023-04-03T14:04:52;3.30;;;1.30;;
71080;SDS011;58740;50.672;18.690;2023-04-03T14:07:26;3.00;;;1.00;;
71080;SDS011;58740;50.672;18.690;2023-04-03T14:09:55;5.10;;;1.50;;
71080;SDS011;58740;50.672;18.690;2023-04-03T14:12:31;4.80;;;1.20;;
71080;SDS011;58740;50.672;18.690;2023-04-03T14:15:14;5.40;;;1.50;;
71080;SDS011;58740;50.672;18.690;2023-04-03T14:17:46;3.80;;;1.30;;
71080;SDS011;58740;50.672;18.690;2023-04-03T14:20:20;3.90;;;1.30;;
71080;SDS011;58740;50.672;18.690;2023-04-03T14:22:50;3.80;;;1.10;;
71080;SDS011;58740;50.672;18.690;2023-04-03T14:25:20;3.50;;;1.10;;
71080;SDS011;58740;50.672;18.690;2023-04-03T14:27:52;6.00;;;1.70;;
71080;SDS011;58740;50.672;18.690;2023-04-03T14:30:25;8.30;;;2.20;;
71080;SDS011;58740;50.672;18.690;2023-04-03T14:32:55;6.00;;;1.20;;
71080;SDS011;58740;50.672;18.690;2023-04-03T14:35:24;4.10;;;2.00;;
71080;SDS011;58740;50.672;18.690;2023-04-03T14:37:53;4.00;;;1.40;;
71080;SDS011;58740;50.672;18.690;2023-04-03T14:40:24;3.60;;;1.70;;
71080;SDS011;58740;50.672;18.690;2023-04-03T14:42:53;5.50;;;1.40;;
71080;SDS011;58740;50.672;18.690;2023-04-03T14:45:23;6.90;;;2.10;;
71080;SDS011;58740;50.672;18.690;2023-04-03T14:47:53;4.00;;;1.10;;
71080;SDS011;58740;50.672;18.690;2023-04-03T14:50:25;5.40;;;1.60;;
71080;SDS011;58740;50.672;18.690;2023-04-03T14:52:57;5.30;;;1.30;;
71080;SDS011;58740;50.672;18.690;2023-04-03T14:55:26;4.80;;;1.60;;
71080;SDS011;58740;50.672;18.690;2023-04-03T14:57:55;5.40;;;1.50;;
71080;SDS011;58740;50.672;18.690;2023-04-03T15:00:22;3.90;;;1.20;;
71080;SDS011;58740;50.672;18.690;2023-04-03T15:02:50;2.60;;;1.20;;
71080;SDS011;58740;50.672;18.690;2023-04-03T15:05:18;3.50;;;1.00;;
71080;SDS011;58740;50.672;18.690;2023-04-03T15:07:53;4.60;;;1.80;;
71080;SDS011;58740;50.672;18.690;2023-04-03T15:10:28;4.20;;;1.40;;
71080;SDS011;58740;50.672;18.690;2023-04-03T15:12:57;6.60;;;2.00;;
71080;SDS011;58740;50.672;18.690;2023-04-03T15:15:28;6.50;;;1.90;;
71080;SDS011;58740;50.672;18.690;2023-04-03T15:17:57;9.70;;;5.20;;
71080;SDS011;58740;50.672;18.690;2023-04-03T15:20:27;7.90;;;2.90;;
71080;SDS011;58740;50.672;18.690;2023-04-03T15:22:57;10.20;;;4.80;;
71080;SDS011;58740;50.672;18.690;2023-04-03T15:25:29;4.80;;;2.00;;
71080;SDS011;58740;50.672;18.690;2023-04-03T15:27:57;4.80;;;1.20;;
71080;SDS011;58740;50.672;18.690;2023-04-03T15:30:27;6.50;;;2.10;;
71080;SDS011;58740;50.672;18.690;2023-04-03T15:32:55;4.60;;;1.40;;
71080;SDS011;58740;50.672;18.690;2023-04-03T15:35:23;5.00;;;1.50;;
71080;SDS011;58740;50.672;18.690;2023-04-03T15:37:51;4.30;;;1.80;;
71080;SDS011;58740;50.672;18.690;2023-04-03T15:40:19;6.40;;;1.60;;
71080;SDS011;58740;50.672;18.690;2023-04-03T15:42:46;3.90;;;1.20;;
71080;SDS011;58740;50.672;18.690;2023-04-03T15:45:14;3.30;;;1.70;;
71080;SDS011;58740;50.672;18.690;2023-04-03T15:47:42;5.70;;;1.60;;
71080;SDS011;58740;50.672;18.690;2023-04-03T15:50:10;6.90;;;2.00;;
71080;SDS011;58740;50.672;18.690;2023-04-03T15:52:39;5.60;;;1.90;;
71080;SDS011;58740;50.672;18.690;2023-04-03T15:55:07;7.00;;;2.00;;
71080;SDS011;58740;50.672;18.690;2023-04-03T15:57:35;7.90;;;2.60;;
71080;SDS011;58740;50.672;18.690;2023-04-03T16:00:08;6.80;;;2.40;;
71080;SDS011;58740;50.672;18.690;2023-04-03T16:02:37;8.90;;;2.70;;
71080;SDS011;58740;50.672;18.690;2023-04-03T16:05:05;5.20;;;1.90;;
71080;SDS011;58740;50.672;18.690;2023-04-03T16:07:33;6.50;;;1.60;;
71080;SDS011;58740;50.672;18.690;2023-04-03T16:10:02;3.90;;;1.30;;
71080;SDS011;58740;50.672;18.690;2023-04-03T16:12:30;5.50;;;2.00;;
71080;SDS011;58740;50.672;18.690;2023-04-03T16:14:58;6.50;;;1.70;;
71080;SDS011;58740;50.672;18.690;2023-04-03T16:17:26;6.70;;;2.10;;
71080;SDS011;58740;50.672;18.690;2023-04-03T16:19:55;7.80;;;2.90;;
71080;SDS011;58740;50.672;18.690;2023-04-03T16:22:25;10.40;;;4.70;;
71080;SDS011;58740;50.672;18.690;2023-04-03T16:24:54;17.60;;;7.30;;
71080;SDS011;58740;50.672;18.690;2023-04-03T16:27:23;12.90;;;4.50;;
71080;SDS011;58740;50.672;18.690;2023-04-03T16:29:55;9.00;;;3.40;;
71080;SDS011;58740;50.672;18.690;2023-04-03T16:32:23;11.00;;;4.00;;